Time,TemperatureF,DewpointF,PressureIn,WindDirection,WindDirectionDegrees,WindSpeedMPH,WindSpeedGustMPH,Humidity,HourlyPrecipIn,Conditions,Clouds,dailyrainin,SoftwareType,DateUTC
2013-09-03 00:01:00,65.2,62.5,29.77,SE,127,0.0,0.0,91,0.00,RA,,0.00,WeatherDisplay:10.37,2013-09-03 04:01:00,
2013-09-03 00:02:00,65.2,62.5,29.77,SE,127,0.0,0.0,91,0.00,RA,,0.00,WeatherDisplay:10.37,2013-09-03 04:02:00,
2013-09-03 00:05:00,65.1,62.4,29.77,SE,127,0.0,0.0,91,0.00,RA,,0.00,WeatherDisplay:10.37,2013-09-03 04:05:00,
2013-09-03 00:10:00,64.9,62.2,29.77,SE,127,0.0,0.0,91,0.00,,,0.00,WeatherDisplay:10.37,2013-09-03 04:10:00,
2013-09-03 00:15:00,64.6,61.9,29.77,SE,127,0.0,0.0,91,0.00,,,0.00,WeatherDisplay:10.37,2013-09-03 04:15:00,
2013-09-03 00:20:00,64.3,61.9,29.77,SE,127,0.0,0.0,92,0.00,,,0.00,WeatherDisplay:10.37,2013-09-03 04:20:00,
2013-09-03 00:25:00,63.9,61.5,29.77,SE,127,0.0,0.0,92,0.00,,,0.00,WeatherDisplay:10.37,2013-09-03 04:25:00,
2013-09-03 00:30:00,63.7,61.3,29.77,SE,127,0.0,0.0,92,0.00,,,0.00,WeatherDisplay:10.37,2013-09-03 04:30:00,
2013-09-03 00:35:00,63.4,61.0,29.77,SE,127,0.0,0.0,92,0.00,,,0.00,WeatherDisplay:10.37,2013-09-03 04:35:00,
2013-09-03 00:40:00,63.3,60.9,29.77,SE,127,0.0,0.0,92,0.00,,,0.00,WeatherDisplay:10.37,2013-09-03 04:40:00,
2013-09-03 00:45:00,63.1,61.0,29.77,SE,127,0.0,0.0,93,0.00,,,0.00,WeatherDisplay:10.37,2013-09-03 04:45:00,
2013-09-03 00:50:00,62.9,60.8,29.78,SE,127,0.0,0.0,93,0.00,,,0.00,WeatherDisplay:10.37,2013-09-03 04:50:00,
2013-09-03 00:55:00,62.6,60.5,29.78,SE,127,0.0,0.0,93,0.00,,,0.00,WeatherDisplay:10.37,2013-09-03 04:55:00,
2013-09-03 01:00:00,62.5,60.4,29.78,SE,127,0.0,0.0,93,0.00,,,0.00,WeatherDisplay:10.37,2013-09-03 05:00:00,
2013-09-03 01:05:00,62.3,60.2,29.78,SE,127,0.0,0.0,93,0.00,,,0.00,WeatherDisplay:10.37,2013-09-03 05:05:00,
2013-09-03 01:10:00,62.5,60.4,29.78,SE,127,0.0,0.0,93,0.00,,,0.00,WeatherDisplay:10.37,2013-09-03 05:10:00,
2013-09-03 01:15:00,62.6,60.2,29.78,SSW,204,0.0,0.0,92,0.00,,,0.00,WeatherDisplay:10.37,2013-09-03 05:15:00,
2013-09-03 01:20:00,62.6,60.5,29.78,SSE,155,1.1,1.1,93,0.00,,,0.00,WeatherDisplay:10.37,2013-09-03 05:20:00,
2013-09-03 01:25:00,62.7,60.3,29.78,East,93,2.0,2.0,92,0.00,,,0.00,WeatherDisplay:10.37,2013-09-03 05:25:00,
2013-09-03 01:30:00,62.9,60.5,29.78,East,86,0.0,0.0,92,0.00,,,0.00,WeatherDisplay:10.37,2013-09-03 05:30:00,
2013-09-03 01:35:00,63.0,60.6,29.78,East,85,0.0,0.0,92,0.00,,,0.00,WeatherDisplay:10.37,2013-09-03 05:35:00,
2013-09-03 01:40:00,63.0,60.6,29.78,East,85,0.0,0.0,92,0.00,,,0.00,WeatherDisplay:10.37,2013-09-03 05:40:00,
2013-09-03 01:45:00,62.9,60.5,29.77,SE,134,0.0,0.0,92,0.00,,,0.00,WeatherDisplay:10.37,2013-09-03 05:45:00,
2013-09-03 01:50:00,62.9,60.5,29.77,SE,134,0.0,0.0,92,0.00,,,0.00,WeatherDisplay:10.37,2013-09-03 05:50:00,
2013-09-03 01:55:00,62.8,60.4,29.77,South,184,0.0,0.0,92,0.00,,,0.00,WeatherDisplay:10.37,2013-09-03 05:55:00,
2013-09-03 02:00:00,62.8,60.4,29.77,South,184,0.0,0.0,92,0.00,,,0.00,WeatherDisplay:10.37,2013-09-03 06:00:00,
2013-09-03 02:05:00,62.8,60.4,29.77,South,181,0.0,0.0,92,0.00,,,0.00,WeatherDisplay:10.37,2013-09-03 06:05:00,
2013-09-03 02:10:00,62.7,60.3,29.77,ESE,114,0.0,0.0,92,0.00,,,0.00,WeatherDisplay:10.37,2013-09-03 06:10:00,
2013-09-03 02:15:00,62.7,60.3,29.77,ESE,108,0.0,0.0,92,0.00,,,0.00,WeatherDisplay:10.37,2013-09-03 06:15:00,
2013-09-03 02:20:00,62.7,60.3,29.77,ESE,107,1.1,0.0,92,0.00,,,0.00,WeatherDisplay:10.37,2013-09-03 06:20:00,
2013-09-03 02:25:00,62.7,60.0,29.76,NNW,340,3.5,3.5,91,0.00,,,0.00,WeatherDisplay:10.37,2013-09-03 06:25:00,
2013-09-03 02:31:00,62.7,59.7,29.77,WNW,293,0.0,0.0,90,0.00,,,0.00,WeatherDisplay:10.37,2013-09-03 06:31:00,
2013-09-03 02:36:00,62.7,59.7,29.76,WNW,293,1.1,0.0,90,0.00,,,0.00,WeatherDisplay:10.37,2013-09-03 06:36:00,
2013-09-03 02:41:00,62.6,59.6,29.76,NW,319,0.0,0.0,90,0.00,,,0.00,WeatherDisplay:10.37,2013-09-03 06:41:00,
2013-09-03 02:46:00,62.6,59.6,29.76,NW,320,0.0,0.0,90,0.00,,,0.00,WeatherDisplay:10.37,2013-09-03 06:46:00,
2013-09-03 02:51:00,62.6,59.9,29.77,ESE,108,1.0,1.0,91,0.00,,,0.00,WeatherDisplay:10.37,2013-09-03 06:51:00,
2013-09-03 02:56:00,62.5,59.8,29.77,ESE,105,0.0,0.0,91,0.00,,,0.00,WeatherDisplay:10.37,2013-09-03 06:56:00,
2013-09-03 03:01:00,62.5,59.8,29.77,ESE,105,0.0,0.0,91,0.00,,,0.00,WeatherDisplay:10.37,2013-09-03 07:01:00,
2013-09-03 03:06:00,62.4,59.7,29.77,ESE,107,0.0,0.0,91,0.00,,,0.00,WeatherDisplay:10.37,2013-09-03 07:06:00,
2013-09-03 03:11:00,62.3,59.6,29.77,ESE,108,0.0,0.0,91,0.00,,,0.00,WeatherDisplay:10.37,2013-09-03 07:11:00,
2013-09-03 03:16:00,62.2,59.8,29.77,ESE,108,0.0,0.0,92,0.00,,,0.00,WeatherDisplay:10.37,2013-09-03 07:16:00,
2013-09-03 03:21:00,62.2,59.8,29.77,ESE,108,0.0,0.0,92,0.00,,,0.00,WeatherDisplay:10.37,2013-09-03 07:21:00,
2013-09-03 03:26:00,62.1,59.7,29.77,ESE,107,0.0,0.0,92,0.00,,,0.00,WeatherDisplay:10.37,2013-09-03 07:26:00,
2013-09-03 03:31:00,62.0,59.6,29.76,ESE,107,0.0,0.0,92,0.00,,,0.00,WeatherDisplay:10.37,2013-09-03 07:31:00,
2013-09-03 03:36:00,62.0,59.6,29.76,ESE,107,0.0,0.0,92,0.00,,,0.00,WeatherDisplay:10.37,2013-09-03 07:36:00,
2013-09-03 03:41:00,62.0,59.6,29.77,ENE,59,1.1,1.1,92,0.00,,,0.00,WeatherDisplay:10.37,2013-09-03 07:41:00,
2013-09-03 03:46:00,62.0,59.6,29.77,NE,45,0.0,0.0,92,0.00,,,0.00,WeatherDisplay:10.37,2013-09-03 07:46:00,
2013-09-03 03:51:00,62.0,59.3,29.77,ESE,120,0.0,0.0,91,0.00,,,0.00,WeatherDisplay:10.37,2013-09-03 07:51:00,
2013-09-03 03:56:00,61.9,59.5,29.77,ESE,120,0.0,0.0,92,0.00,,,0.00,WeatherDisplay:10.37,2013-09-03 07:56:00,
2013-09-03 04:01:00,61.8,59.5,29.77,ESE,120,0.0,0.0,92,0.00,,,0.00,WeatherDisplay:10.37,2013-09-03 08:01:00,
2013-09-03 04:06:00,61.7,59.4,29.76,ESE,120,0.0,0.0,92,0.00,,,0.00,WeatherDisplay:10.37,2013-09-03 08:06:00,
2013-09-03 04:11:00,61.7,59.4,29.76,SE,145,0.0,0.0,92,0.00,,,0.00,WeatherDisplay:10.37,2013-09-03 08:11:00,
2013-09-03 04:16:00,61.8,59.5,29.76,SE,145,0.0,0.0,92,0.00,,,0.00,WeatherDisplay:10.37,2013-09-03 08:16:00,
2013-09-03 04:21:00,61.8,59.5,29.77,SE,145,0.0,0.0,92,0.00,,,0.00,WeatherDisplay:10.37,2013-09-03 08:21:00,
2013-09-03 04:26:00,61.8,59.5,29.77,SE,139,0.0,0.0,92,0.00,,,0.00,WeatherDisplay:10.37,2013-09-03 08:26:00,
2013-09-03 04:31:00,61.7,59.4,29.76,SE,139,0.0,0.0,92,0.00,,,0.00,WeatherDisplay:10.37,2013-09-03 08:31:00,
2013-09-03 04:36:00,61.7,59.4,29.76,ESE,118,1.1,1.1,92,0.00,,,0.00,WeatherDisplay:10.37,2013-09-03 08:36:00,
2013-09-03 04:41:00,61.7,59.4,29.76,SE,127,0.0,0.0,92,0.00,,,0.00,WeatherDisplay:10.37,2013-09-03 08:41:00,
2013-09-03 04:46:00,61.7,59.4,29.77,SE,127,0.0,0.0,92,0.00,,,0.00,WeatherDisplay:10.37,2013-09-03 08:46:00,
2013-09-03 04:51:00,61.6,59.3,29.77,SE,127,0.0,0.0,92,0.00,,,0.00,WeatherDisplay:10.37,2013-09-03 08:51:00,
2013-09-03 04:56:00,61.5,59.2,29.77,SE,127,0.0,0.0,92,0.00,,,0.00,WeatherDisplay:10.37,2013-09-03 08:56:00,
2013-09-03 05:01:00,61.5,59.2,29.77,SE,127,0.0,0.0,92,0.00,,,0.00,WeatherDisplay:10.37,2013-09-03 09:01:00,
2013-09-03 05:06:00,61.4,59.1,29.77,SE,127,0.0,0.0,92,0.00,,,0.00,WeatherDisplay:10.37,2013-09-03 09:06:00,
2013-09-03 05:11:00,61.3,59.0,29.77,SE,127,0.0,0.0,92,0.00,,,0.00,WeatherDisplay:10.37,2013-09-03 09:11:00,
2013-09-03 05:16:00,61.3,59.0,29.77,SE,127,0.0,0.0,92,0.00,,,0.00,WeatherDisplay:10.37,2013-09-03 09:16:00,
2013-09-03 05:21:00,61.2,58.9,29.77,SE,127,0.0,0.0,92,0.00,,,0.00,WeatherDisplay:10.37,2013-09-03 09:21:00,
2013-09-03 05:26:00,61.2,58.9,29.77,SE,127,0.0,0.0,92,0.00,,,0.00,WeatherDisplay:10.37,2013-09-03 09:26:00,
2013-09-03 05:31:00,61.1,58.8,29.78,SE,127,0.0,0.0,92,0.00,,,0.00,WeatherDisplay:10.37,2013-09-03 09:31:00,
2013-09-03 05:36:00,61.0,58.7,29.78,SE,127,0.0,0.0,92,0.00,,,0.00,WeatherDisplay:10.37,2013-09-03 09:36:00,
2013-09-03 05:41:00,61.0,58.7,29.78,SE,127,0.0,0.0,92,0.00,,,0.00,WeatherDisplay:10.37,2013-09-03 09:41:00,
2013-09-03 05:46:00,61.0,58.7,29.78,SE,127,0.0,0.0,92,0.00,,,0.00,WeatherDisplay:10.37,2013-09-03 09:46:00,
2013-09-03 05:51:00,61.0,58.7,29.78,SE,127,0.0,0.0,92,0.00,,,0.00,WeatherDisplay:10.37,2013-09-03 09:51:00,
2013-09-03 05:56:00,61.0,59.0,29.78,SE,143,1.1,0.0,93,0.00,,,0.00,WeatherDisplay:10.37,2013-09-03 09:56:00,
2013-09-03 06:01:00,61.0,59.0,29.78,SE,143,0.0,0.0,93,0.00,,,0.00,WeatherDisplay:10.37,2013-09-03 10:01:00,
2013-09-03 06:06:00,61.1,58.8,29.78,SE,127,1.1,1.1,92,0.00,,,0.00,WeatherDisplay:10.37,2013-09-03 10:06:00,
2013-09-03 06:11:00,61.1,58.8,29.78,SE,136,0.0,0.0,92,0.00,,,0.00,WeatherDisplay:10.37,2013-09-03 10:11:00,
2013-09-03 06:16:00,61.2,58.9,29.78,SSW,205,1.1,1.1,92,0.00,,,0.00,WeatherDisplay:10.37,2013-09-03 10:16:00,
2013-09-03 06:21:00,61.3,59.0,29.78,SSE,148,0.0,0.0,92,0.00,,,0.00,WeatherDisplay:10.37,2013-09-03 10:21:00,
2013-09-03 06:26:00,61.4,59.1,29.78,SSE,149,0.0,0.0,92,0.00,,,0.00,WeatherDisplay:10.37,2013-09-03 10:26:00,
2013-09-03 06:31:00,61.4,59.1,29.79,SE,135,0.0,0.0,92,0.00,,,0.00,WeatherDisplay:10.37,2013-09-03 10:31:00,
2013-09-03 06:36:00,61.5,59.2,29.79,SE,135,0.0,0.0,92,0.00,,,0.00,WeatherDisplay:10.37,2013-09-03 10:36:00,
2013-09-03 06:41:00,61.5,59.2,29.79,East,101,0.0,0.0,92,0.00,,,0.00,WeatherDisplay:10.37,2013-09-03 10:41:00,
2013-09-03 06:46:00,61.4,59.1,29.79,ESE,118,0.0,0.0,92,0.00,,,0.00,WeatherDisplay:10.37,2013-09-03 10:46:00,
2013-09-03 06:51:00,61.4,59.1,29.79,SSW,205,0.0,0.0,92,0.00,,,0.00,WeatherDisplay:10.37,2013-09-03 10:51:00,
2013-09-03 06:56:00,61.5,59.2,29.79,SE,145,0.0,0.0,92,0.00,,,0.00,WeatherDisplay:10.37,2013-09-03 10:56:00,
2013-09-03 07:01:00,61.4,59.1,29.79,SE,145,0.0,0.0,92,0.00,,,0.00,WeatherDisplay:10.37,2013-09-03 11:01:00,
2013-09-03 07:06:00,61.3,59.0,29.79,SW,219,0.0,0.0,92,0.00,,,0.00,WeatherDisplay:10.37,2013-09-03 11:06:00,
2013-09-03 07:11:00,61.3,59.0,29.79,SW,219,0.0,0.0,92,0.00,,,0.00,WeatherDisplay:10.37,2013-09-03 11:11:00,
2013-09-03 07:16:00,61.2,58.9,29.79,South,181,2.3,2.3,92,0.00,,,0.00,WeatherDisplay:10.37,2013-09-03 11:16:00,
2013-09-03 07:21:00,61.2,58.9,29.79,South,181,0.0,0.0,92,0.00,,,0.00,WeatherDisplay:10.37,2013-09-03 11:21:00,
2013-09-03 07:26:00,61.3,59.0,29.80,South,181,0.0,0.0,92,0.00,,,0.00,WeatherDisplay:10.37,2013-09-03 11:26:00,
2013-09-03 07:31:00,61.3,59.0,29.80,SE,129,1.1,1.1,92,0.00,,,0.00,WeatherDisplay:10.37,2013-09-03 11:31:00,
2013-09-03 07:36:00,61.4,59.1,29.80,SE,146,0.0,0.0,92,0.00,,,0.00,WeatherDisplay:10.37,2013-09-03 11:36:00,
2013-09-03 07:41:00,61.4,59.1,29.80,ESE,120,1.0,1.0,92,0.00,,,0.00,WeatherDisplay:10.37,2013-09-03 11:41:00,
2013-09-03 07:46:00,61.5,59.2,29.81,SSW,194,2.3,0.0,92,0.00,,,0.00,WeatherDisplay:10.37,2013-09-03 11:46:00,
2013-09-03 07:51:00,61.5,59.2,29.81,SSE,160,0.0,0.0,92,0.00,,,0.00,WeatherDisplay:10.37,2013-09-03 11:51:00,
2013-09-03 07:56:00,61.7,59.4,29.81,SE,131,0.0,0.0,92,0.00,,,0.00,WeatherDisplay:10.37,2013-09-03 11:56:00,
2013-09-03 08:01:00,61.8,59.5,29.81,East,94,0.0,0.4,92,0.00,,,0.00,WeatherDisplay:10.37,2013-09-03 12:01:00,
2013-09-03 08:06:00,61.8,59.5,29.81,ESE,119,1.1,0.0,92,0.00,CLR,,0.00,WeatherDisplay:10.37,2013-09-03 12:06:00,
2013-09-03 08:11:00,62.0,59.6,29.81,WSW,241,1.1,0.0,92,0.00,CLR,,0.00,WeatherDisplay:10.37,2013-09-03 12:11:00,
2013-09-03 08:17:00,62.1,59.4,29.81,WSW,246,1.1,1.1,91,0.00,CLR,,0.00,WeatherDisplay:10.37,2013-09-03 12:17:00,
2013-09-03 08:22:00,62.4,59.7,29.81,ESE,105,1.1,0.0,91,0.00,CLR,,0.00,WeatherDisplay:10.37,2013-09-03 12:22:00,
2013-09-03 08:27:00,62.6,59.9,29.81,SSW,194,1.1,1.1,91,0.00,CLR,,0.00,WeatherDisplay:10.37,2013-09-03 12:27:00,
2013-09-03 08:32:00,62.7,59.7,29.81,ESE,104,3.5,3.5,90,0.00,CLR,,0.00,WeatherDisplay:10.37,2013-09-03 12:32:00,
2013-09-03 08:37:00,62.8,59.8,29.81,NE,35,0.0,0.1,90,0.00,CLR,,0.00,WeatherDisplay:10.37,2013-09-03 12:37:00,
2013-09-03 08:42:00,63.0,59.7,29.82,ENE,64,3.5,3.5,89,0.00,CLR,,0.00,WeatherDisplay:10.37,2013-09-03 12:42:00,
2013-09-03 08:47:00,63.2,59.9,29.82,West,262,3.5,0.0,89,0.00,CLR,,0.00,WeatherDisplay:10.37,2013-09-03 12:47:00,
2013-09-03 08:52:00,63.4,60.1,29.82,ENE,68,2.0,2.0,89,0.00,CLR,,0.00,WeatherDisplay:10.37,2013-09-03 12:52:00,
2013-09-03 08:57:00,63.5,59.9,29.82,SW,225,1.1,1.1,88,0.00,CLR,,0.00,WeatherDisplay:10.37,2013-09-03 12:57:00,
2013-09-03 09:02:00,63.5,59.6,29.82,WNW,285,3.5,3.5,87,0.00,CLR,,0.00,WeatherDisplay:10.37,2013-09-03 13:02:00,
2013-09-03 09:07:00,63.6,60.0,29.82,SSE,149,0.0,0.0,88,0.00,CLR,,0.00,WeatherDisplay:10.37,2013-09-03 13:07:00,
2013-09-03 09:12:00,63.9,60.0,29.82,SW,236,3.5,3.5,87,0.00,CLR,,0.00,WeatherDisplay:10.37,2013-09-03 13:12:00,
2013-09-03 09:17:00,64.1,60.2,29.82,West,276,1.0,1.0,87,0.00,CLR,,0.00,WeatherDisplay:10.37,2013-09-03 13:17:00,
2013-09-03 09:22:00,64.3,59.7,29.82,SSW,199,3.5,3.5,85,0.00,CLR,,0.00,WeatherDisplay:10.37,2013-09-03 13:22:00,
2013-09-03 09:27:00,64.4,59.8,29.82,NNE,25,3.5,3.5,85,0.00,CLR,,0.00,WeatherDisplay:10.37,2013-09-03 13:27:00,
2013-09-03 09:32:00,64.4,59.5,29.82,North,355,8.1,8.1,84,0.00,CLR,,0.00,WeatherDisplay:10.37,2013-09-03 13:32:00,
2013-09-03 09:37:00,64.5,59.6,29.82,SW,228,2.3,2.3,84,0.00,CLR,,0.00,WeatherDisplay:10.37,2013-09-03 13:37:00,
2013-09-03 09:42:00,64.9,59.3,29.82,West,278,8.1,8.1,82,0.00,CLR,,0.00,WeatherDisplay:10.37,2013-09-03 13:42:00,
2013-09-03 09:47:00,65.1,59.8,29.82,WSW,239,1.1,1.1,83,0.00,CLR,,0.00,WeatherDisplay:10.37,2013-09-03 13:47:00,
2013-09-03 09:52:00,65.4,59.8,29.82,East,89,3.5,3.5,82,0.00,CLR,,0.00,WeatherDisplay:10.37,2013-09-03 13:52:00,
2013-09-03 09:57:00,65.2,59.2,29.82,SW,222,3.5,3.5,81,0.00,CLR,,0.00,WeatherDisplay:10.37,2013-09-03 13:57:00,
2013-09-03 10:02:00,65.5,60.2,29.82,NNW,333,2.3,2.3,83,0.00,CLR,,0.00,WeatherDisplay:10.37,2013-09-03 14:02:00,
2013-09-03 10:07:00,65.8,59.5,29.82,SW,219,2.3,3.0,80,0.00,CLR,,0.00,WeatherDisplay:10.37,2013-09-03 14:07:00,
2013-09-03 10:12:00,66.2,59.1,29.82,WNW,293,4.6,4.6,78,0.00,CLR,,0.00,WeatherDisplay:10.37,2013-09-03 14:12:00,
2013-09-03 10:17:00,66.4,59.7,29.82,West,273,4.6,4.6,79,0.00,CLR,,0.00,WeatherDisplay:10.37,2013-09-03 14:17:00,
2013-09-03 10:22:00,66.4,59.3,29.82,SW,232,3.5,3.5,78,0.00,CLR,,0.00,WeatherDisplay:10.37,2013-09-03 14:22:00,
2013-09-03 10:27:00,66.2,58.8,29.82,West,265,2.3,2.3,77,0.00,CLR,,0.00,WeatherDisplay:10.37,2013-09-03 14:27:00,
2013-09-03 10:32:00,66.2,59.5,29.82,ENE,62,2.3,2.3,79,0.00,CLR,,0.00,WeatherDisplay:10.37,2013-09-03 14:32:00,
2013-09-03 10:37:00,66.5,59.4,29.82,NW,307,5.0,5.0,78,0.00,CLR,,0.00,WeatherDisplay:10.37,2013-09-03 14:37:00,
2013-09-03 10:42:00,66.9,60.2,29.82,West,281,2.3,2.3,79,0.00,CLR,,0.00,WeatherDisplay:10.37,2013-09-03 14:42:00,
2013-09-03 10:47:00,67.5,60.0,29.83,NNE,23,3.5,3.5,77,0.00,CLR,,0.00,WeatherDisplay:10.37,2013-09-03 14:47:00,
2013-09-03 10:52:00,67.3,58.7,29.83,WSW,257,3.5,3.5,74,0.00,CLR,,0.00,WeatherDisplay:10.37,2013-09-03 14:52:00,
2013-09-03 10:57:00,67.0,58.4,29.83,NE,56,4.6,4.6,74,0.00,CLR,,0.00,WeatherDisplay:10.37,2013-09-03 14:57:00,
2013-09-03 11:02:00,67.4,59.9,29.83,ESE,110,2.3,2.3,77,0.00,CLR,,0.00,WeatherDisplay:10.37,2013-09-03 15:02:00,
2013-09-03 11:07:00,67.7,60.6,29.83,NNE,15,2.3,2.3,78,0.00,CLR,,0.00,WeatherDisplay:10.37,2013-09-03 15:07:00,
2013-09-03 11:12:00,67.8,60.0,29.83,WNW,289,2.3,2.3,76,0.00,CLR,,0.00,WeatherDisplay:10.37,2013-09-03 15:12:00,
2013-09-03 11:17:00,67.8,59.2,29.83,WNW,285,5.8,5.8,74,0.00,CLR,,0.00,WeatherDisplay:10.37,2013-09-03 15:17:00,
2013-09-03 11:22:00,67.2,59.4,29.83,SW,235,3.5,3.5,76,0.00,CLR,,0.00,WeatherDisplay:10.37,2013-09-03 15:22:00,
2013-09-03 11:27:00,67.2,59.4,29.83,West,264,1.1,0.0,76,0.00,CLR,,0.00,WeatherDisplay:10.37,2013-09-03 15:27:00,
2013-09-03 11:32:00,67.7,59.9,29.83,NNW,330,3.5,3.5,76,0.00,CLR,,0.00,WeatherDisplay:10.37,2013-09-03 15:32:00,
2013-09-03 11:37:00,68.1,59.9,29.83,NW,306,5.8,5.8,75,0.00,CLR,,0.00,WeatherDisplay:10.37,2013-09-03 15:37:00,
2013-09-03 11:42:00,68.0,59.4,29.82,SW,225,4.0,4.0,74,0.00,CLR,,0.00,WeatherDisplay:10.37,2013-09-03 15:42:00,
2013-09-03 11:47:00,67.4,58.4,29.83,WNW,284,5.0,5.0,73,0.00,CLR,,0.00,WeatherDisplay:10.37,2013-09-03 15:47:00,
2013-09-03 11:52:00,66.8,58.6,29.83,NW,304,3.5,3.5,75,0.00,CLR,,0.00,WeatherDisplay:10.37,2013-09-03 15:52:00,
2013-09-03 11:57:00,66.3,58.1,29.83,West,281,3.5,3.5,75,0.00,CLR,,0.00,WeatherDisplay:10.37,2013-09-03 15:57:00,
2013-09-03 12:02:00,66.3,58.9,29.83,WNW,284,2.3,2.3,77,0.00,CLR,,0.00,WeatherDisplay:10.37,2013-09-03 16:02:00,
2013-09-03 12:07:00,66.5,58.7,29.82,North,1,5.8,5.8,76,0.00,CLR,,0.00,WeatherDisplay:10.37,2013-09-03 16:07:00,
2013-09-03 12:12:00,67.1,59.3,29.82,West,281,5.8,5.8,76,0.00,CLR,,0.00,WeatherDisplay:10.37,2013-09-03 16:12:00,
2013-09-03 12:17:00,67.3,59.1,29.82,West,277,3.5,3.5,75,0.00,CLR,,0.00,WeatherDisplay:10.37,2013-09-03 16:17:00,
2013-09-03 12:22:00,67.3,59.5,29.83,West,262,3.5,3.5,76,0.00,CLR,,0.00,WeatherDisplay:10.37,2013-09-03 16:22:00,
2013-09-03 12:27:00,66.8,59.0,29.82,South,176,3.5,3.5,76,0.00,CLR,,0.00,WeatherDisplay:10.37,2013-09-03 16:27:00,
2013-09-03 12:32:00,66.2,58.4,29.83,NNW,339,4.6,4.6,76,0.00,CLR,,0.00,WeatherDisplay:10.37,2013-09-03 16:32:00,
2013-09-03 12:37:00,65.6,58.2,29.83,NW,313,6.9,6.9,77,0.00,CLR,,0.00,WeatherDisplay:10.37,2013-09-03 16:37:00,
2013-09-03 12:42:00,65.4,58.4,29.83,NNW,342,3.5,3.5,78,0.00,CLR,,0.00,WeatherDisplay:10.37,2013-09-03 16:42:00,
2013-09-03 12:47:00,65.1,58.4,29.83,WNW,301,3.5,3.5,79,0.00,CLR,,0.00,WeatherDisplay:10.37,2013-09-03 16:47:00,
2013-09-03 12:52:00,65.1,59.5,29.83,ESE,106,3.0,3.0,82,0.00,CLR,,0.00,WeatherDisplay:10.37,2013-09-03 16:52:00,
2013-09-03 12:57:00,65.2,58.9,29.83,WSW,256,4.6,4.6,80,0.00,CLR,,0.00,WeatherDisplay:10.37,2013-09-03 16:57:00,
2013-09-03 13:02:00,65.3,59.0,29.83,NW,311,1.1,1.1,80,0.00,CLR,,0.00,WeatherDisplay:10.37,2013-09-03 17:02:00,
2013-09-03 13:07:00,65.2,58.9,29.83,North,357,3.5,3.5,80,0.00,CLR,,0.00,WeatherDisplay:10.37,2013-09-03 17:07:00,
2013-09-03 13:12:00,65.2,59.2,29.83,WNW,290,5.0,5.0,81,0.00,CLR,,0.00,WeatherDisplay:10.37,2013-09-03 17:12:00,
2013-09-03 13:17:00,65.2,59.6,29.83,NNE,16,4.6,4.6,82,0.00,CLR,,0.00,WeatherDisplay:10.37,2013-09-03 17:17:00,
2013-09-03 13:22:00,65.0,59.7,29.83,North,350,3.5,3.5,83,0.00,CLR,,0.00,WeatherDisplay:10.37,2013-09-03 17:22:00,
2013-09-03 13:27:00,64.8,59.2,29.83,WNW,301,6.9,6.9,82,0.00,CLR,,0.00,WeatherDisplay:10.37,2013-09-03 17:27:00,
2013-09-03 13:32:00,65.1,58.8,29.83,WSW,242,4.6,4.6,80,0.00,CLR,,0.00,WeatherDisplay:10.37,2013-09-03 17:32:00,
2013-09-03 13:37:00,65.6,59.3,29.83,WNW,297,3.5,3.5,80,0.00,CLR,,0.00,WeatherDisplay:10.37,2013-09-03 17:37:00,
2013-09-03 13:42:00,66.2,59.1,29.83,NW,304,5.8,5.8,78,0.00,CLR,,0.00,WeatherDisplay:10.37,2013-09-03 17:42:00,
2013-09-03 13:47:00,66.4,59.7,29.83,East,98,5.8,5.8,79,0.00,CLR,,0.00,WeatherDisplay:10.37,2013-09-03 17:47:00,
2013-09-03 13:52:00,66.6,59.9,29.83,East,95,3.5,3.5,79,0.00,CLR,,0.00,WeatherDisplay:10.37,2013-09-03 17:52:00,
2013-09-03 13:57:00,66.6,59.5,29.83,East,100,3.5,3.5,78,0.00,CLR,,0.00,WeatherDisplay:10.37,2013-09-03 17:57:00,
2013-09-03 14:02:00,66.6,59.2,29.83,NNW,328,3.5,3.5,77,0.00,CLR,,0.00,WeatherDisplay:10.37,2013-09-03 18:02:00,
2013-09-03 14:07:00,66.9,59.5,29.83,WSW,256,6.9,6.9,77,0.00,CLR,,0.00,WeatherDisplay:10.37,2013-09-03 18:07:00,
2013-09-03 14:12:00,66.9,59.1,29.83,WNW,298,8.1,8.1,76,0.00,CLR,,0.00,WeatherDisplay:10.37,2013-09-03 18:12:00,
2013-09-03 14:17:00,66.6,59.5,29.83,WNW,290,5.8,5.8,78,0.00,CLR,,0.00,WeatherDisplay:10.37,2013-09-03 18:17:00,
2013-09-03 14:23:00,66.5,59.8,29.83,SE,142,4.6,4.6,79,0.00,CLR,,0.00,WeatherDisplay:10.37,2013-09-03 18:23:00,
2013-09-03 14:28:00,66.6,59.9,29.83,North,350,1.1,1.1,79,0.00,CLR,,0.00,WeatherDisplay:10.37,2013-09-03 18:28:00,
2013-09-03 14:33:00,66.7,59.3,29.83,NW,323,3.0,3.0,77,0.00,CLR,,0.00,WeatherDisplay:10.37,2013-09-03 18:33:00,
2013-09-03 14:38:00,66.7,59.6,29.83,West,270,1.1,1.1,78,0.00,CLR,,0.00,WeatherDisplay:10.37,2013-09-03 18:38:00,
2013-09-03 14:43:00,66.7,59.6,29.83,West,273,3.5,3.5,78,0.00,CLR,,0.00,WeatherDisplay:10.37,2013-09-03 18:43:00,
2013-09-03 14:48:00,66.6,59.5,29.83,WNW,284,1.1,1.1,78,0.00,CLR,,0.00,WeatherDisplay:10.37,2013-09-03 18:48:00,
2013-09-03 14:53:00,66.5,59.4,29.83,NW,314,3.5,3.5,78,0.00,CLR,,0.00,WeatherDisplay:10.37,2013-09-03 18:53:00,
2013-09-03 14:58:00,66.5,60.5,29.83,ENE,68,0.0,0.0,81,0.00,CLR,,0.00,WeatherDisplay:10.37,2013-09-03 18:58:00,
2013-09-03 15:03:00,66.8,59.7,29.83,WNW,297,3.5,3.5,78,0.00,CLR,,0.00,WeatherDisplay:10.37,2013-09-03 19:03:00,
2013-09-03 15:08:00,66.9,60.2,29.83,ESE,105,1.1,1.1,79,0.00,CLR,,0.00,WeatherDisplay:10.37,2013-09-03 19:08:00,
2013-09-03 15:13:00,66.6,59.5,29.83,SE,131,3.5,3.5,78,0.00,CLR,,0.00,WeatherDisplay:10.37,2013-09-03 19:13:00,
2013-09-03 15:18:00,66.4,59.7,29.84,SSW,211,3.5,3.5,79,0.00,CLR,,0.00,WeatherDisplay:10.37,2013-09-03 19:18:00,
2013-09-03 15:23:00,66.3,59.9,29.83,North,8,1.1,1.1,80,0.00,CLR,,0.00,WeatherDisplay:10.37,2013-09-03 19:23:00,
2013-09-03 15:28:00,66.1,59.0,29.83,NW,314,5.8,5.8,78,0.00,CLR,,0.00,WeatherDisplay:10.37,2013-09-03 19:28:00,
2013-09-03 15:33:00,66.1,59.4,29.83,WNW,289,5.8,5.8,79,0.00,CLR,,0.00,WeatherDisplay:10.37,2013-09-03 19:33:00,
2013-09-03 15:38:00,66.4,59.7,29.83,WSW,252,4.6,4.6,79,0.00,CLR,,0.00,WeatherDisplay:10.37,2013-09-03 19:38:00,
2013-09-03 15:43:00,66.5,59.4,29.84,WNW,288,3.0,3.0,78,0.00,CLR,,0.00,WeatherDisplay:10.37,2013-09-03 19:43:00,
2013-09-03 15:48:00,66.7,60.0,29.83,WNW,288,1.1,1.1,79,0.00,CLR,,0.00,WeatherDisplay:10.37,2013-09-03 19:48:00,
2013-09-03 15:53:00,67.1,60.4,29.84,South,188,2.3,2.3,79,0.00,CLR,,0.00,WeatherDisplay:10.37,2013-09-03 19:53:00,
2013-09-03 15:58:00,66.9,60.5,29.84,NE,53,3.0,3.0,80,0.00,CLR,,0.00,WeatherDisplay:10.37,2013-09-03 19:58:00,
2013-09-03 16:03:00,66.8,60.1,29.84,NE,37,3.0,3.0,79,0.00,CLR,,0.00,WeatherDisplay:10.37,2013-09-03 20:03:00,
2013-09-03 16:08:00,66.7,60.0,29.84,SSW,211,2.3,2.3,79,0.00,CLR,,0.00,WeatherDisplay:10.37,2013-09-03 20:08:00,
2013-09-03 16:13:00,66.6,59.9,29.84,East,79,3.5,3.5,79,0.00,CLR,,0.00,WeatherDisplay:10.37,2013-09-03 20:13:00,
2013-09-03 16:18:00,66.9,60.5,29.84,ESE,113,1.0,1.0,80,0.00,CLR,,0.00,WeatherDisplay:10.37,2013-09-03 20:18:00,
2013-09-03 16:23:00,67.1,60.4,29.84,NW,321,2.3,2.3,79,0.00,CLR,,0.00,WeatherDisplay:10.37,2013-09-03 20:23:00,
2013-09-03 16:28:00,67.0,59.9,29.84,NE,44,3.5,3.5,78,0.00,CLR,,0.00,WeatherDisplay:10.37,2013-09-03 20:28:00,
2013-09-03 16:33:00,66.9,60.5,29.84,West,274,3.5,3.5,80,0.00,CLR,,0.00,WeatherDisplay:10.37,2013-09-03 20:33:00,
2013-09-03 16:38:00,66.8,60.8,29.84,WSW,255,1.1,1.1,81,0.00,CLR,,0.00,WeatherDisplay:10.37,2013-09-03 20:38:00,
2013-09-03 16:43:00,66.9,60.2,29.84,WNW,298,3.5,3.5,79,0.00,CLR,,0.00,WeatherDisplay:10.37,2013-09-03 20:43:00,
2013-09-03 16:48:00,66.6,60.6,29.84,North,11,0.0,0.0,81,0.00,CLR,,0.00,WeatherDisplay:10.37,2013-09-03 20:48:00,
2013-09-03 16:53:00,66.6,60.2,29.84,West,259,3.5,3.5,80,0.00,CLR,,0.00,WeatherDisplay:10.37,2013-09-03 20:53:00,
2013-09-03 16:58:00,66.6,60.2,29.84,West,278,2.3,2.3,80,0.00,CLR,,0.00,WeatherDisplay:10.37,2013-09-03 20:58:00,
2013-09-03 17:03:00,66.5,60.1,29.84,WSW,250,2.3,2.3,80,0.00,CLR,,0.00,WeatherDisplay:10.37,2013-09-03 21:03:00,
2013-09-03 17:08:00,66.4,59.7,29.84,WSW,248,4.6,4.6,79,0.00,CLR,,0.00,WeatherDisplay:10.37,2013-09-03 21:08:00,
2013-09-03 17:13:00,66.3,60.3,29.84,WSW,248,0.0,0.0,81,0.00,CLR,,0.00,WeatherDisplay:10.37,2013-09-03 21:13:00,
2013-09-03 17:18:00,66.2,60.2,29.84,NW,316,2.3,2.3,81,0.00,CLR,,0.00,WeatherDisplay:10.37,2013-09-03 21:18:00,
2013-09-03 17:23:00,66.0,59.7,29.85,NNE,32,3.5,3.5,80,0.00,CLR,,0.00,WeatherDisplay:10.37,2013-09-03 21:23:00,
2013-09-03 17:28:00,66.0,60.0,29.85,SSE,167,0.0,0.0,81,0.00,CLR,,0.00,WeatherDisplay:10.37,2013-09-03 21:28:00,
2013-09-03 17:33:00,65.9,59.9,29.85,NNW,340,3.5,3.5,81,0.00,CLR,,0.00,WeatherDisplay:10.37,2013-09-03 21:33:00,
2013-09-03 17:38:00,65.9,59.9,29.85,WNW,283,3.5,3.5,81,0.00,CLR,,0.00,WeatherDisplay:10.37,2013-09-03 21:38:00,
2013-09-03 17:43:00,65.8,60.2,29.85,WSW,247,1.1,1.1,82,0.00,CLR,,0.00,WeatherDisplay:10.37,2013-09-03 21:43:00,
2013-09-03 17:48:00,66.0,60.3,29.85,SW,234,0.0,0.0,82,0.00,CLR,,0.00,WeatherDisplay:10.37,2013-09-03 21:48:00,
2013-09-03 17:53:00,66.0,60.0,29.85,ENE,58,2.3,0.0,81,0.00,CLR,,0.00,WeatherDisplay:10.37,2013-09-03 21:53:00,
2013-09-03 17:58:00,66.0,60.3,29.85,NW,319,3.5,3.5,82,0.00,CLR,,0.00,WeatherDisplay:10.37,2013-09-03 21:58:00,
2013-09-03 18:03:00,65.9,60.2,29.85,WNW,289,0.0,0.0,82,0.00,CLR,,0.00,WeatherDisplay:10.37,2013-09-03 22:03:00,
2013-09-03 18:08:00,65.8,60.2,29.85,NNW,331,0.0,0.0,82,0.00,CLR,,0.00,WeatherDisplay:10.37,2013-09-03 22:08:00,
2013-09-03 18:13:00,65.9,60.6,29.85,West,263,0.0,0.0,83,0.00,CLR,,0.00,WeatherDisplay:10.37,2013-09-03 22:13:00,
2013-09-03 18:18:00,65.7,60.1,29.85,SE,132,0.0,0.0,82,0.00,CLR,,0.00,WeatherDisplay:10.37,2013-09-03 22:18:00,
2013-09-03 18:23:00,65.6,60.0,29.85,SW,225,3.5,3.5,82,0.00,CLR,,0.00,WeatherDisplay:10.37,2013-09-03 22:23:00,
2013-09-03 18:28:00,65.4,60.4,29.85,WNW,293,0.0,0.6,84,0.00,CLR,,0.00,WeatherDisplay:10.37,2013-09-03 22:28:00,
2013-09-03 18:33:00,65.0,60.0,29.85,NW,306,2.0,2.0,84,0.00,CLR,,0.00,WeatherDisplay:10.37,2013-09-03 22:33:00,
2013-09-03 18:38:00,64.6,60.6,29.85,ENE,78,0.0,0.0,87,0.00,CLR,,0.00,WeatherDisplay:10.37,2013-09-03 22:38:00,
2013-09-03 18:43:00,64.1,60.5,29.85,East,83,3.5,3.5,88,0.00,CLR,,0.00,WeatherDisplay:10.37,2013-09-03 22:43:00,
2013-09-03 18:48:00,63.8,60.5,29.85,North,10,2.0,2.0,89,0.00,CLR,,0.00,WeatherDisplay:10.37,2013-09-03 22:48:00,
2013-09-03 18:53:00,63.5,60.5,29.85,East,90,1.1,1.1,90,0.01,RA,,0.01,WeatherDisplay:10.37,2013-09-03 22:53:00,
2013-09-03 18:58:00,63.3,60.3,29.85,SE,135,1.1,1.1,90,0.01,RA,,0.01,WeatherDisplay:10.37,2013-09-03 22:58:00,
2013-09-03 19:03:00,63.1,60.1,29.86,West,259,2.3,2.3,90,0.01,CLR,,0.01,WeatherDisplay:10.37,2013-09-03 23:03:00,
2013-09-03 19:09:00,62.9,60.2,29.86,SE,132,0.0,0.0,91,0.01,CLR,,0.01,WeatherDisplay:10.37,2013-09-03 23:09:00,
2013-09-03 19:14:00,62.7,60.0,29.86,SW,217,0.0,0.0,91,0.01,CLR,,0.01,WeatherDisplay:10.37,2013-09-03 23:14:00,
2013-09-03 19:19:00,62.7,60.0,29.86,SE,129,0.0,0.0,91,0.01,CLR,,0.01,WeatherDisplay:10.37,2013-09-03 23:19:00,
2013-09-03 19:24:00,62.6,60.2,29.86,SE,130,0.0,0.0,92,0.01,CLR,,0.01,WeatherDisplay:10.37,2013-09-03 23:24:00,
2013-09-03 19:29:00,62.5,60.1,29.86,East,88,0.0,0.0,92,0.01,CLR,,0.01,WeatherDisplay:10.37,2013-09-03 23:29:00,
2013-09-03 19:34:00,62.5,60.1,29.86,ESE,112,0.0,0.0,92,0.01,CLR,,0.01,WeatherDisplay:10.37,2013-09-03 23:34:00,
2013-09-03 19:39:00,62.5,60.1,29.87,North,349,0.0,0.0,92,0.01,CLR,,0.01,WeatherDisplay:10.37,2013-09-03 23:39:00,
2013-09-03 19:44:00,62.5,60.1,29.87,North,349,0.0,0.0,92,0.01,CLR,,0.01,WeatherDisplay:10.37,2013-09-03 23:44:00,
2013-09-03 19:49:00,62.5,60.1,29.87,SE,127,0.0,0.0,92,0.01,CLR,,0.01,WeatherDisplay:10.37,2013-09-03 23:49:00,
2013-09-03 19:54:00,62.5,60.1,29.87,SE,127,0.0,0.0,92,0.00,CLR,,0.01,WeatherDisplay:10.37,2013-09-03 23:54:00,
2013-09-03 19:59:00,62.5,60.1,29.87,SE,127,0.0,0.0,92,0.00,CLR,,0.01,WeatherDisplay:10.37,2013-09-03 23:59:00,
2013-09-03 20:04:00,62.5,60.1,29.87,ENE,65,0.0,0.0,92,0.00,,,0.01,WeatherDisplay:10.37,2013-09-04 00:04:00,
2013-09-03 20:09:00,62.5,60.1,29.88,ENE,65,0.0,0.0,92,0.00,,,0.01,WeatherDisplay:10.37,2013-09-04 00:09:00,
2013-09-03 20:14:00,62.6,60.2,29.88,ENE,65,0.0,0.0,92,0.00,,,0.01,WeatherDisplay:10.37,2013-09-04 00:14:00,
2013-09-03 20:19:00,62.6,60.2,29.89,ENE,65,0.0,0.0,92,0.00,,,0.01,WeatherDisplay:10.37,2013-09-04 00:19:00,
2013-09-03 20:24:00,62.7,60.3,29.89,ENE,65,0.0,0.0,92,0.00,,,0.01,WeatherDisplay:10.37,2013-09-04 00:24:00,
2013-09-03 20:29:00,62.7,60.3,29.89,ENE,65,0.0,0.0,92,0.00,,,0.01,WeatherDisplay:10.37,2013-09-04 00:29:00,
2013-09-03 20:34:00,62.6,60.2,29.89,ENE,65,0.0,0.0,92,0.00,,,0.01,WeatherDisplay:10.37,2013-09-04 00:34:00,
2013-09-03 20:39:00,62.5,60.1,29.89,ENE,65,0.0,0.0,92,0.00,,,0.01,WeatherDisplay:10.37,2013-09-04 00:39:00,
2013-09-03 20:44:00,62.5,60.1,29.89,ENE,65,0.0,0.0,92,0.00,,,0.01,WeatherDisplay:10.37,2013-09-04 00:44:00,
2013-09-03 20:50:00,62.4,60.0,29.89,ENE,65,0.0,0.0,92,0.00,,,0.01,WeatherDisplay:10.37,2013-09-04 00:50:00,
2013-09-03 20:55:00,62.4,60.0,29.89,ENE,65,0.0,0.0,92,0.00,,,0.01,WeatherDisplay:10.37,2013-09-04 00:55:00,
2013-09-03 21:00:00,62.3,59.9,29.89,ENE,65,0.0,0.0,92,0.00,,,0.01,WeatherDisplay:10.37,2013-09-04 01:00:00,
2013-09-03 21:05:00,62.2,59.8,29.89,ENE,65,0.0,0.0,92,0.00,,,0.01,WeatherDisplay:10.37,2013-09-04 01:05:00,
2013-09-03 21:10:00,62.3,59.9,29.89,ENE,65,0.0,0.0,92,0.00,,,0.01,WeatherDisplay:10.37,2013-09-04 01:10:00,
2013-09-03 21:15:00,62.3,59.9,29.89,ENE,65,0.0,0.0,92,0.00,,,0.01,WeatherDisplay:10.37,2013-09-04 01:15:00,
2013-09-03 21:20:00,62.2,59.8,29.90,ENE,65,0.0,0.0,92,0.00,,,0.01,WeatherDisplay:10.37,2013-09-04 01:20:00,
2013-09-03 21:25:00,62.2,59.8,29.90,ENE,65,0.0,0.0,92,0.00,,,0.01,WeatherDisplay:10.37,2013-09-04 01:25:00,
2013-09-03 21:30:00,62.2,59.8,29.90,ENE,65,0.0,0.0,92,0.00,,,0.01,WeatherDisplay:10.37,2013-09-04 01:30:00,
2013-09-03 21:35:00,62.2,59.8,29.90,ENE,65,0.0,0.0,92,0.00,,,0.01,WeatherDisplay:10.37,2013-09-04 01:35:00,
2013-09-03 21:40:00,62.0,59.6,29.90,ENE,65,0.0,0.0,92,0.00,,,0.01,WeatherDisplay:10.37,2013-09-04 01:40:00,
2013-09-03 21:45:00,61.8,59.8,29.90,ENE,65,0.0,0.0,93,0.00,,,0.01,WeatherDisplay:10.37,2013-09-04 01:45:00,
2013-09-03 21:50:00,61.5,59.5,29.90,ENE,65,0.0,0.0,93,0.00,,,0.01,WeatherDisplay:10.37,2013-09-04 01:50:00,
2013-09-03 21:55:00,61.2,59.2,29.90,ENE,65,0.0,0.0,93,0.00,,,0.01,WeatherDisplay:10.37,2013-09-04 01:55:00,
2013-09-03 22:00:00,61.0,59.0,29.90,SSW,212,0.0,0.0,93,0.00,,,0.01,WeatherDisplay:10.37,2013-09-04 02:00:00,
2013-09-03 22:05:00,61.0,59.0,29.90,WSW,238,0.0,0.0,93,0.00,,,0.01,WeatherDisplay:10.37,2013-09-04 02:05:00,
2013-09-03 22:10:00,61.0,59.0,29.90,WNW,301,0.0,0.0,93,0.00,,,0.01,WeatherDisplay:10.37,2013-09-04 02:10:00,
2013-09-03 22:15:00,60.9,58.9,29.91,SE,124,0.0,0.0,93,0.00,,,0.01,WeatherDisplay:10.37,2013-09-04 02:15:00,
2013-09-03 22:20:00,60.8,58.8,29.91,North,353,0.0,0.0,93,0.00,,,0.01,WeatherDisplay:10.37,2013-09-04 02:20:00,
2013-09-03 22:25:00,60.7,58.7,29.91,North,353,0.0,0.0,93,0.00,,,0.01,WeatherDisplay:10.37,2013-09-04 02:25:00,
2013-09-03 22:30:00,60.5,58.5,29.91,North,353,0.0,0.0,93,0.00,,,0.01,WeatherDisplay:10.37,2013-09-04 02:30:00,
2013-09-03 22:35:00,60.3,58.3,29.91,North,353,0.0,0.0,93,0.00,,,0.01,WeatherDisplay:10.37,2013-09-04 02:35:00,
2013-09-03 22:40:00,60.1,58.1,29.91,North,353,0.0,0.0,93,0.00,,,0.01,WeatherDisplay:10.37,2013-09-04 02:40:00,
2013-09-03 22:45:00,60.0,58.0,29.91,NNE,33,0.0,0.0,93,0.00,,,0.01,WeatherDisplay:10.37,2013-09-04 02:45:00,
2013-09-03 22:50:00,59.9,57.9,29.91,NNE,33,0.0,0.0,93,0.00,,,0.01,WeatherDisplay:10.37,2013-09-04 02:50:00,
2013-09-03 22:55:00,59.8,57.5,29.91,NE,53,0.0,0.0,92,0.00,,,0.01,WeatherDisplay:10.37,2013-09-04 02:55:00,
2013-09-03 23:00:00,59.7,57.4,29.91,NE,54,0.0,0.0,92,0.00,,,0.01,WeatherDisplay:10.37,2013-09-04 03:00:00,
2013-09-03 23:05:00,59.6,57.3,29.91,ENE,62,0.0,0.0,92,0.00,,,0.01,WeatherDisplay:10.37,2013-09-04 03:05:00,
2013-09-03 23:10:00,59.4,57.1,29.91,ENE,63,0.0,0.0,92,0.00,,,0.01,WeatherDisplay:10.37,2013-09-04 03:10:00,
2013-09-03 23:15:00,59.2,56.9,29.92,NW,308,0.0,0.0,92,0.00,,,0.01,WeatherDisplay:10.37,2013-09-04 03:15:00,
2013-09-03 23:20:00,59.1,56.8,29.92,ESE,105,0.0,0.0,92,0.00,,,0.01,WeatherDisplay:10.37,2013-09-04 03:20:00,
2013-09-03 23:25:00,59.1,56.8,29.92,NNW,330,1.1,1.1,92,0.00,,,0.01,WeatherDisplay:10.37,2013-09-04 03:25:00,
2013-09-03 23:30:00,59.2,56.9,29.92,North,352,0.0,0.0,92,0.00,,,0.01,WeatherDisplay:10.37,2013-09-04 03:30:00,
2013-09-03 23:35:00,59.3,57.0,29.92,NE,37,0.0,0.0,92,0.00,,,0.01,WeatherDisplay:10.37,2013-09-04 03:35:00,
2013-09-03 23:40:00,59.4,57.1,29.92,WSW,253,0.0,0.0,92,0.00,,,0.01,WeatherDisplay:10.37,2013-09-04 03:40:00,
2013-09-03 23:45:00,59.5,57.2,29.92,WSW,253,0.0,0.0,92,0.00,,,0.01,WeatherDisplay:10.37,2013-09-04 03:45:00,
2013-09-03 23:50:00,59.4,57.4,29.92,WSW,253,0.0,0.0,93,0.00,,,0.01,WeatherDisplay:10.37,2013-09-04 03:50:00,
2013-09-03 23:55:00,59.4,57.4,29.92,NE,45,1.1,0.0,93,0.00,,,0.01,WeatherDisplay:10.37,2013-09-04 03:55:00,